sensor_id;sensor_type;location;lat;lon;timestamp;P1;durP1;ratioP1;P2;durP2;ratioP2
50631;SDS011;49583;45.590;-122.498;2023-08-01T00:01:23;1.20;;;1.00;;
50631;SDS011;49583;45.590;-122.498;2023-08-01T00:03:36;2.70;;;1.20;;
50631;SDS011;49583;45.590;-122.498;2023-08-01T00:05:49;1.50;;;0.90;;
50631;SDS011;49583;45.590;-122.498;2023-08-01T00:08:03;1.40;;;1.00;;
50631;SDS011;49583;45.590;-122.498;2023-08-01T00:10:16;1.10;;;1.00;;
50631;SDS011;49583;45.590;-122.498;2023-08-01T00:12:29;1.20;;;0.80;;
50631;SDS011;49583;45.590;-122.498;2023-08-01T00:14:42;2.80;;;0.90;;
50631;SDS011;49583;45.590;-122.498;2023-08-01T00:16:55;2.20;;;1.10;;
50631;SDS011;49583;45.590;-122.498;2023-08-01T00:19:08;1.30;;;0.80;;
50631;SDS011;49583;45.590;-122.498;2023-08-01T00:21:20;2.50;;;0.90;;
50631;SDS011;49583;45.590;-122.498;2023-08-01T00:23:33;0.90;;;0.70;;
50631;SDS011;49583;45.590;-122.498;2023-08-01T00:25:46;2.50;;;0.90;;
50631;SDS011;49583;45.590;-122.498;2023-08-01T00:27:59;1.70;;;1.00;;
50631;SDS011;49583;45.590;-122.498;2023-08-01T00:30:12;2.50;;;0.90;;
50631;SDS011;49583;45.590;-122.498;2023-08-01T00:32:25;4.50;;;1.00;;
50631;SDS011;49583;45.590;-122.498;2023-08-01T00:34:38;1.70;;;0.90;;
50631;SDS011;49583;45.590;-122.498;2023-08-01T00:36:51;3.20;;;1.70;;
50631;SDS011;49583;45.590;-122.498;2023-08-01T00:39:04;1.90;;;1.20;;
50631;SDS011;49583;45.590;-122.498;2023-08-01T00:41:17;1.90;;;1.00;;
50631;SDS011;49583;45.590;-122.498;2023-08-01T00:43:30;1.60;;;0.90;;
50631;SDS011;49583;45.590;-122.498;2023-08-01T00:45:43;1.90;;;1.10;;
50631;SDS011;49583;45.590;-122.498;2023-08-01T00:47:56;2.30;;;1.00;;
50631;SDS011;49583;45.590;-122.498;2023-08-01T00:50:10;1.30;;;1.00;;
50631;SDS011;49583;45.590;-122.498;2023-08-01T00:52:23;3.20;;;0.80;;
50631;SDS011;49583;45.590;-122.498;2023-08-01T00:54:36;1.70;;;1.10;;
50631;SDS011;49583;45.590;-122.498;2023-08-01T00:56:49;1.30;;;0.90;;
50631;SDS011;49583;45.590;-122.498;2023-08-01T00:59:02;3.00;;;0.80;;
50631;SDS011;49583;45.590;-122.498;2023-08-01T01:01:14;3.60;;;1.00;;
50631;SDS011;49583;45.590;-122.498;2023-08-01T01:03:27;2.60;;;0.60;;
50631;SDS011;49583;45.590;-122.498;2023-08-01T01:05:42;1.90;;;1.00;;
50631;SDS011;49583;45.590;-122.498;2023-08-01T01:07:59;6.10;;;0.90;;
50631;SDS011;49583;45.590;-122.498;2023-08-01T01:10:12;1.70;;;1.00;;
50631;SDS011;49583;45.590;-122.498;2023-08-01T01:12:25;0.90;;;0.80;;
50631;SDS011;49583;45.590;-122.498;2023-08-01T01:14:38;1.10;;;0.80;;
50631;SDS011;49583;45.590;-122.498;2023-08-01T01:16:52;0.90;;;0.80;;
50631;SDS011;49583;45.590;-122.498;2023-08-01T01:19:06;0.90;;;0.80;;
50631;SDS011;49583;45.590;-122.498;2023-08-01T01:21:19;1.20;;;0.70;;
50631;SDS011;49583;45.590;-122.498;2023-08-01T01:23:31;1.70;;;0.90;;
50631;SDS011;49583;45.590;-122.498;2023-08-01T01:25:46;1.60;;;0.80;;
50631;SDS011;49583;45.590;-122.498;2023-08-01T01:28:00;1.20;;;1.00;;
50631;SDS011;49583;45.590;-122.498;2023-08-01T01:30:17;2.60;;;0.90;;
50631;SDS011;49583;45.590;-122.498;2023-08-01T01:32:31;2.00;;;0.90;;
50631;SDS011;49583;45.590;-122.498;2023-08-01T01:34:46;1.20;;;0.70;;
50631;SDS011;49583;45.590;-122.498;2023-08-01T01:37:01;1.10;;;0.90;;
50631;SDS011;49583;45.590;-122.498;2023-08-01T01:39:14;1.00;;;0.90;;
50631;SDS011;49583;45.590;-122.498;2023-08-01T01:41:29;3.20;;;0.80;;
50631;SDS011;49583;45.590;-122.498;2023-08-01T01:43:42;1.40;;;0.80;;
50631;SDS011;49583;45.590;-122.498;2023-08-01T01:45:55;1.50;;;1.10;;
50631;SDS011;49583;45.590;-122.498;2023-08-01T01:48:08;0.80;;;0.80;;
50631;SDS011;49583;45.590;-122.498;2023-08-01T01:50:22;2.90;;;1.20;;
50631;SDS011;49583;45.590;-122.498;2023-08-01T01:52:35;3.50;;;0.80;;
50631;SDS011;49583;45.590;-122.498;2023-08-01T01:54:48;1.60;;;0.80;;
50631;SDS011;49583;45.590;-122.498;2023-08-01T01:57:01;2.10;;;1.00;;
50631;SDS011;49583;45.590;-122.498;2023-08-01T01:59:15;2.90;;;1.00;;
50631;SDS011;49583;45.590;-122.498;2023-08-01T02:01:29;1.00;;;0.80;;
50631;SDS011;49583;45.590;-122.498;2023-08-01T02:03:42;1.20;;;0.80;;
50631;SDS011;49583;45.590;-122.498;2023-08-01T02:05:56;1.00;;;0.90;;
50631;SDS011;49583;45.590;-122.498;2023-08-01T02:08:09;2.50;;;0.80;;
50631;SDS011;49583;45.590;-122.498;2023-08-01T02:10:22;4.40;;;0.70;;
50631;SDS011;49583;45.590;-122.498;2023-08-01T02:12:36;1.30;;;0.80;;
50631;SDS011;49583;45.590;-122.498;2023-08-01T02:14:49;4.10;;;1.00;;
50631;SDS011;49583;45.590;-122.498;2023-08-01T02:17:01;2.20;;;0.80;;
50631;SDS011;49583;45.590;-122.498;2023-08-01T02:19:15;3.30;;;1.00;;
50631;SDS011;49583;45.590;-122.498;2023-08-01T02:21:29;3.60;;;0.80;;
50631;SDS011;49583;45.590;-122.498;2023-08-01T02:23:41;1.80;;;1.00;;
50631;SDS011;49583;45.590;-122.498;2023-08-01T02:25:54;2.40;;;1.10;;
50631;SDS011;49583;45.590;-122.498;2023-08-01T02:28:08;1.80;;;1.00;;
50631;SDS011;49583;45.590;-122.498;2023-08-01T02:30:21;1.50;;;1.10;;
50631;SDS011;49583;45.590;-122.498;2023-08-01T02:32:34;3.40;;;1.10;;
50631;SDS011;49583;45.590;-122.498;2023-08-01T02:34:47;4.50;;;1.30;;
50631;SDS011;49583;45.590;-122.498;2023-08-01T02:37:01;1.00;;;0.80;;
50631;SDS011;49583;45.590;-122.498;2023-08-01T02:39:14;1.70;;;1.10;;
50631;SDS011;49583;45.590;-122.498;2023-08-01T02:41:26;2.60;;;1.00;;
50631;SDS011;49583;45.590;-122.498;2023-08-01T02:43:39;1.70;;;1.00;;
50631;SDS011;49583;45.590;-122.498;2023-08-01T02:45:55;2.30;;;1.60;;
50631;SDS011;49583;45.590;-122.498;2023-08-01T02:48:09;1.40;;;1.00;;
50631;SDS011;49583;45.590;-122.498;2023-08-01T02:50:22;2.30;;;1.10;;
50631;SDS011;49583;45.590;-122.498;2023-08-01T02:52:36;3.00;;;1.10;;
50631;SDS011;49583;45.590;-122.498;2023-08-01T02:54:49;1.40;;;1.10;;
50631;SDS011;49583;45.590;-122.498;2023-08-01T02:57:03;2.40;;;1.00;;
50631;SDS011;49583;45.590;-122.498;2023-08-01T02:59:16;1.40;;;1.00;;
50631;SDS011;49583;45.590;-122.498;2023-08-01T03:01:29;1.10;;;1.00;;
50631;SDS011;49583;45.590;-122.498;2023-08-01T03:03:43;2.20;;;1.20;;
50631;SDS011;49583;45.590;-122.498;2023-08-01T03:05:55;1.50;;;0.90;;
50631;SDS011;49583;45.590;-122.498;2023-08-01T03:08:09;1.40;;;1.00;;
50631;SDS011;49583;45.590;-122.498;2023-08-01T03:10:21;2.00;;;1.10;;
50631;SDS011;49583;45.590;-122.498;2023-08-01T03:12:42;3.60;;;1.30;;
50631;SDS011;49583;45.590;-122.498;2023-08-01T03:14:55;1.50;;;1.10;;
50631;SDS011;49583;45.590;-122.498;2023-08-01T03:17:07;3.10;;;1.00;;
50631;SDS011;49583;45.590;-122.498;2023-08-01T03:19:20;1.70;;;1.10;;
50631;SDS011;49583;45.590;-122.498;2023-08-01T03:21:34;1.50;;;0.90;;
50631;SDS011;49583;45.590;-122.498;2023-08-01T03:23:47;1.80;;;0.80;;
50631;SDS011;49583;45.590;-122.498;2023-08-01T03:25:59;2.30;;;1.10;;
50631;SDS011;49583;45.590;-122.498;2023-08-01T03:28:12;2.10;;;1.20;;
50631;SDS011;49583;45.590;-122.498;2023-08-01T03:30:25;2.30;;;1.20;;
50631;SDS011;49583;45.590;-122.498;2023-08-01T03:32:39;1.70;;;0.90;;
50631;SDS011;49583;45.590;-122.498;2023-08-01T03:34:53;2.70;;;1.80;;
50631;SDS011;49583;45.590;-122.498;2023-08-01T03:37:06;8.10;;;1.50;;
50631;SDS011;49583;45.590;-122.498;2023-08-01T03:39:20;1.60;;;1.00;;
50631;SDS011;49583;45.590;-122.498;2023-08-01T03:41:33;2.60;;;1.30;;
50631;SDS011;49583;45.590;-122.498;2023-08-01T03:43:46;1.20;;;1.10;;
50631;SDS011;49583;45.590;-122.498;2023-08-01T03:45:59;1.90;;;1.10;;
50631;SDS011;49583;45.590;-122.498;2023-08-01T03:48:12;1.30;;;0.90;;
50631;SDS011;49583;45.590;-122.498;2023-08-01T03:50:25;3.00;;;1.00;;
50631;SDS011;49583;45.590;-122.498;2023-08-01T03:52:38;1.90;;;0.90;;
50631;SDS011;49583;45.590;-122.498;2023-08-01T03:54:52;4.00;;;1.00;;
50631;SDS011;49583;45.590;-122.498;2023-08-01T03:57:06;1.80;;;1.00;;
50631;SDS011;49583;45.590;-122.498;2023-08-01T03:59:19;2.60;;;1.60;;
50631;SDS011;49583;45.590;-122.498;2023-08-01T04:01:31;2.20;;;1.20;;
50631;SDS011;49583;45.590;-122.498;2023-08-01T04:03:44;2.90;;;1.30;;
50631;SDS011;49583;45.590;-122.498;2023-08-01T04:05:57;2.70;;;1.40;;
50631;SDS011;49583;45.590;-122.498;2023-08-01T04:08:09;2.90;;;1.10;;
50631;SDS011;49583;45.590;-122.498;2023-08-01T04:10:22;1.90;;;1.00;;
50631;SDS011;49583;45.590;-122.498;2023-08-01T04:12:35;1.50;;;1.00;;
50631;SDS011;49583;45.590;-122.498;2023-08-01T04:14:49;2.30;;;0.90;;
50631;SDS011;49583;45.590;-122.498;2023-08-01T04:17:02;1.90;;;0.70;;
50631;SDS011;49583;45.590;-122.498;2023-08-01T04:19:15;0.80;;;0.70;;
50631;SDS011;49583;45.590;-122.498;2023-08-01T04:21:28;1.80;;;1.00;;
50631;SDS011;49583;45.590;-122.498;2023-08-01T04:23:42;3.40;;;1.20;;
50631;SDS011;49583;45.590;-122.498;2023-08-01T04:25:55;2.40;;;1.00;;
50631;SDS011;49583;45.590;-122.498;2023-08-01T04:28:08;1.30;;;1.00;;
50631;SDS011;49583;45.590;-122.498;2023-08-01T04:30:21;2.80;;;1.10;;
50631;SDS011;49583;45.590;-122.498;2023-08-01T04:32:33;2.10;;;1.00;;
50631;SDS011;49583;45.590;-122.498;2023-08-01T04:34:47;3.20;;;1.10;;
50631;SDS011;49583;45.590;-122.498;2023-08-01T04:37:00;2.70;;;1.00;;
50631;SDS011;49583;45.590;-122.498;2023-08-01T04:39:13;2.00;;;1.10;;
50631;SDS011;49583;45.590;-122.498;2023-08-01T04:41:25;1.90;;;1.10;;
50631;SDS011;49583;45.590;-122.498;2023-08-01T04:43:40;1.80;;;1.00;;
50631;SDS011;49583;45.590;-122.498;2023-08-01T04:45:57;2.20;;;0.90;;
50631;SDS011;49583;45.590;-122.498;2023-08-01T04:48:10;1.80;;;1.00;;
50631;SDS011;49583;45.590;-122.498;2023-08-01T04:50:23;1.50;;;1.00;;
50631;SDS011;49583;45.590;-122.498;2023-08-01T04:52:36;3.70;;;1.20;;
50631;SDS011;49583;45.590;-122.498;2023-08-01T04:54:48;1.80;;;1.00;;
50631;SDS011;49583;45.590;-122.498;2023-08-01T04:57:02;1.70;;;0.90;;
50631;SDS011;49583;45.590;-122.498;2023-08-01T04:59:15;2.50;;;1.00;;
50631;SDS011;49583;45.590;-122.498;2023-08-01T05:01:28;2.40;;;0.90;;
50631;SDS011;49583;45.590;-122.498;2023-08-01T05:03:41;3.10;;;1.30;;
50631;SDS011;49583;45.590;-122.498;2023-08-01T05:05:53;3.50;;;1.70;;
50631;SDS011;49583;45.590;-122.498;2023-08-01T05:08:06;3.90;;;1.10;;
50631;SDS011;49583;45.590;-122.498;2023-08-01T05:10:19;3.10;;;1.10;;
50631;SDS011;49583;45.590;-122.498;2023-08-01T05:12:32;2.00;;;0.80;;
50631;SDS011;49583;45.590;-122.498;2023-08-01T05:14:45;1.50;;;1.00;;
50631;SDS011;49583;45.590;-122.498;2023-08-01T05:16:58;2.80;;;1.20;;
50631;SDS011;49583;45.590;-122.498;2023-08-01T05:19:11;3.00;;;0.80;;
50631;SDS011;49583;45.590;-122.498;2023-08-01T05:21:23;1.50;;;0.70;;
50631;SDS011;49583;45.590;-122.498;2023-08-01T05:23:36;1.50;;;0.80;;
50631;SDS011;49583;45.590;-122.498;2023-08-01T05:25:49;2.10;;;1.00;;
50631;SDS011;49583;45.590;-122.498;2023-08-01T05:28:02;0.80;;;0.60;;
50631;SDS011;49583;45.590;-122.498;2023-08-01T05:30:15;1.30;;;0.70;;
50631;SDS011;49583;45.590;-122.498;2023-08-01T05:32:28;0.90;;;0.90;;
50631;SDS011;49583;45.590;-122.498;2023-08-01T05:34:41;1.50;;;0.70;;
50631;SDS011;49583;45.590;-122.498;2023-08-01T05:36:54;2.40;;;0.80;;
50631;SDS011;49583;45.590;-122.498;2023-08-01T05:39:07;2.50;;;0.80;;
50631;SDS011;49583;45.590;-122.498;2023-08-01T05:41:19;4.10;;;1.20;;
50631;SDS011;49583;45.590;-122.498;2023-08-01T05:43:32;3.10;;;1.00;;
50631;SDS011;49583;45.590;-122.498;2023-08-01T05:45:47;1.90;;;0.80;;
50631;SDS011;49583;45.590;-122.498;2023-08-01T05:48:01;1.10;;;0.80;;
50631;SDS011;49583;45.590;-122.498;2023-08-01T05:50:24;0.80;;;0.70;;
50631;SDS011;49583;45.590;-122.498;2023-08-01T05:52:38;1.10;;;0.90;;
50631;SDS011;49583;45.590;-122.498;2023-08-01T05:54:51;3.80;;;0.90;;
50631;SDS011;49583;45.590;-122.498;2023-08-01T05:57:04;1.50;;;1.00;;
50631;SDS011;49583;45.590;-122.498;2023-08-01T05:59:18;0.70;;;0.70;;
50631;SDS011;49583;45.590;-122.498;2023-08-01T06:01:31;1.80;;;0.90;;
50631;SDS011;49583;45.590;-122.498;2023-08-01T06:03:44;0.90;;;0.70;;
50631;SDS011;49583;45.590;-122.498;2023-08-01T06:05:57;4.80;;;1.10;;
50631;SDS011;49583;45.590;-122.498;2023-08-01T06:08:10;1.00;;;0.80;;
50631;SDS011;49583;45.590;-122.498;2023-08-01T06:10:23;1.30;;;0.80;;
50631;SDS011;49583;45.590;-122.498;2023-08-01T06:12:36;0.90;;;0.60;;
50631;SDS011;49583;45.590;-122.498;2023-08-01T06:14:49;1.70;;;1.00;;
50631;SDS011;49583;45.590;-122.498;2023-08-01T06:17:02;1.30;;;0.80;;
50631;SDS011;49583;45.590;-122.498;2023-08-01T06:19:15;1.50;;;0.80;;
50631;SDS011;49583;45.590;-122.498;2023-08-01T06:21:28;2.40;;;0.90;;
50631;SDS011;49583;45.590;-122.498;2023-08-01T06:23:41;2.00;;;1.00;;
50631;SDS011;49583;45.590;-122.498;2023-08-01T06:25:54;1.00;;;0.80;;
50631;SDS011;49583;45.590;-122.498;2023-08-01T06:28:06;1.90;;;0.90;;
50631;SDS011;49583;45.590;-122.498;2023-08-01T06:30:19;1.70;;;0.90;;
50631;SDS011;49583;45.590;-122.498;2023-08-01T06:32:32;2.70;;;1.00;;
50631;SDS011;49583;45.590;-122.498;2023-08-01T06:34:44;2.00;;;0.80;;
50631;SDS011;49583;45.590;-122.498;2023-08-01T06:36:57;2.00;;;1.00;;
50631;SDS011;49583;45.590;-122.498;2023-08-01T06:39:11;0.90;;;0.70;;
50631;SDS011;49583;45.590;-122.498;2023-08-01T06:41:24;3.00;;;0.90;;
50631;SDS011;49583;45.590;-122.498;2023-08-01T06:43:36;0.80;;;0.70;;
50631;SDS011;49583;45.590;-122.498;2023-08-01T06:45:49;1.30;;;0.80;;
50631;SDS011;49583;45.590;-122.498;2023-08-01T06:48:02;3.40;;;0.80;;
50631;SDS011;49583;45.590;-122.498;2023-08-01T06:50:16;3.00;;;0.90;;
50631;SDS011;49583;45.590;-122.498;2023-08-01T06:52:29;10.00;;;1.40;;
50631;SDS011;49583;45.590;-122.498;2023-08-01T06:54:41;0.80;;;0.70;;
50631;SDS011;49583;45.590;-122.498;2023-08-01T06:56:54;2.10;;;1.00;;
50631;SDS011;49583;45.590;-122.498;2023-08-01T06:59:08;1.60;;;0.70;;
50631;SDS011;49583;45.590;-122.498;2023-08-01T07:01:21;1.80;;;0.80;;
50631;SDS011;49583;45.590;-122.498;2023-08-01T07:03:33;1.30;;;0.80;;
50631;SDS011;49583;45.590;-122.498;2023-08-01T07:05:46;2.70;;;1.10;;
50631;SDS011;49583;45.590;-122.498;2023-08-01T07:08:00;1.70;;;1.10;;
50631;SDS011;49583;45.590;-122.498;2023-08-01T07:10:13;1.70;;;0.80;;
50631;SDS011;49583;45.590;-122.498;2023-08-01T07:12:25;3.70;;;1.20;;
50631;SDS011;49583;45.590;-122.498;2023-08-01T07:14:38;1.30;;;0.80;;
50631;SDS011;49583;45.590;-122.498;2023-08-01T07:16:51;2.30;;;0.90;;
50631;SDS011;49583;45.590;-122.498;2023-08-01T07:19:04;2.90;;;1.20;;
50631;SDS011;49583;45.590;-122.498;2023-08-01T07:21:16;1.30;;;0.90;;
50631;SDS011;49583;45.590;-122.498;2023-08-01T07:23:30;4.60;;;0.80;;
50631;SDS011;49583;45.590;-122.498;2023-08-01T07:25:43;5.90;;;1.00;;
50631;SDS011;49583;45.590;-122.498;2023-08-01T07:27:56;1.90;;;1.20;;
50631;SDS011;49583;45.590;-122.498;2023-08-01T07:30:10;1.80;;;0.60;;
50631;SDS011;49583;45.590;-122.498;2023-08-01T07:32:23;2.20;;;0.80;;
50631;SDS011;49583;45.590;-122.498;2023-08-01T07:34:39;2.60;;;1.30;;
50631;SDS011;49583;45.590;-122.498;2023-08-01T07:36:52;2.10;;;1.00;;
50631;SDS011;49583;45.590;-122.498;2023-08-01T07:39:05;1.70;;;1.00;;
50631;SDS011;49583;45.590;-122.498;2023-08-01T07:41:21;1.90;;;1.00;;
50631;SDS011;49583;45.590;-122.498;2023-08-01T07:43:34;2.50;;;0.80;;
50631;SDS011;49583;45.590;-122.498;2023-08-01T07:45:46;1.80;;;1.10;;
50631;SDS011;49583;45.590;-122.498;2023-08-01T07:48:00;1.20;;;0.90;;
50631;SDS011;49583;45.590;-122.498;2023-08-01T07:50:13;1.90;;;1.10;;
50631;SDS011;49583;45.590;-122.498;2023-08-01T07:52:26;1.50;;;1.10;;
50631;SDS011;49583;45.590;-122.498;2023-08-01T07:54:38;2.00;;;1.20;;
50631;SDS011;49583;45.590;-122.498;2023-08-01T07:56:51;1.80;;;1.10;;
50631;SDS011;49583;45.590;-122.498;2023-08-01T07:59:05;2.00;;;1.10;;
50631;SDS011;49583;45.590;-122.498;2023-08-01T08:01:17;3.40;;;1.20;;
50631;SDS011;49583;45.590;-122.498;2023-08-01T08:03:30;4.10;;;1.10;;
50631;SDS011;49583;45.590;-122.498;2023-08-01T08:05:43;2.60;;;1.60;;
50631;SDS011;49583;45.590;-122.498;2023-08-01T08:07:56;1.00;;;0.90;;
50631;SDS011;49583;45.590;-122.498;2023-08-01T08:10:09;2.40;;;1.20;;
50631;SDS011;49583;45.590;-122.498;2023-08-01T08:12:22;2.00;;;1.10;;
50631;SDS011;49583;45.590;-122.498;2023-08-01T08:14:35;2.00;;;1.10;;
50631;SDS011;49583;45.590;-122.498;2023-08-01T08:16:48;2.40;;;1.10;;
50631;SDS011;49583;45.590;-122.498;2023-08-01T08:19:04;3.20;;;1.20;;
50631;SDS011;49583;45.590;-122.498;2023-08-01T08:21:19;1.10;;;0.90;;
50631;SDS011;49583;45.590;-122.498;2023-08-01T08:23:32;5.80;;;1.40;;
50631;SDS011;49583;45.590;-122.498;2023-08-01T08:25:45;4.80;;;1.50;;
50631;SDS011;49583;45.590;-122.498;2023-08-01T08:27:58;6.30;;;1.30;;
50631;SDS011;49583;45.590;-122.498;2023-08-01T08:30:12;3.00;;;1.40;;
50631;SDS011;49583;45.590;-122.498;2023-08-01T08:32:24;6.00;;;1.80;;
50631;SDS011;49583;45.590;-122.498;2023-08-01T08:34:37;2.70;;;1.10;;
50631;SDS011;49583;45.590;-122.498;2023-08-01T08:36:50;3.90;;;1.60;;
50631;SDS011;49583;45.590;-122.498;2023-08-01T08:39:03;2.80;;;1.10;;
50631;SDS011;49583;45.590;-122.498;2023-08-01T08:41:17;3.40;;;1.20;;
50631;SDS011;49583;45.590;-122.498;2023-08-01T08:43:32;2.80;;;1.30;;
50631;SDS011;49583;45.590;-122.498;2023-08-01T08:45:46;1.30;;;1.20;;
50631;SDS011;49583;45.590;-122.498;2023-08-01T08:48:06;3.40;;;1.20;;
50631;SDS011;49583;45.590;-122.498;2023-08-01T08:50:23;2.60;;;1.20;;
50631;SDS011;49583;45.590;-122.498;2023-08-01T08:52:39;1.60;;;1.10;;
50631;SDS011;49583;45.590;-122.498;2023-08-01T08:54:52;2.90;;;1.20;;
50631;SDS011;49583;45.590;-122.498;2023-08-01T08:57:06;2.80;;;1.20;;
50631;SDS011;49583;45.590;-122.498;2023-08-01T08:59:20;1.50;;;1.20;;
50631;SDS011;49583;45.590;-122.498;2023-08-01T09:01:34;1.70;;;1.10;;
50631;SDS011;49583;45.590;-122.498;2023-08-01T09:03:48;4.30;;;1.10;;
50631;SDS011;49583;45.590;-122.498;2023-08-01T09:06:02;3.90;;;1.50;;
50631;SDS011;49583;45.590;-122.498;2023-08-01T09:08:20;1.90;;;1.30;;
50631;SDS011;49583;45.590;-122.498;2023-08-01T09:10:34;1.50;;;0.90;;
50631;SDS011;49583;45.590;-122.498;2023-08-01T09:12:47;2.90;;;0.90;;
50631;SDS011;49583;45.590;-122.498;2023-08-01T09:15:00;2.10;;;1.40;;
50631;SDS011;49583;45.590;-122.498;2023-08-01T09:17:13;1.70;;;1.10;;
50631;SDS011;49583;45.590;-122.498;2023-08-01T09:19:26;1.70;;;1.20;;
50631;SDS011;49583;45.590;-122.498;2023-08-01T09:21:40;2.60;;;1.00;;
50631;SDS011;49583;45.590;-122.498;2023-08-01T09:23:53;2.60;;;1.40;;
50631;SDS011;49583;45.590;-122.498;2023-08-01T09:26:13;5.70;;;1.20;;
50631;SDS011;49583;45.590;-122.498;2023-08-01T09:28:27;2.70;;;1.20;;
50631;SDS011;49583;45.590;-122.498;2023-08-01T09:30:47;2.20;;;1.00;;
50631;SDS011;49583;45.590;-122.498;2023-08-01T09:33:02;1.70;;;1.20;;
50631;SDS011;49583;45.590;-122.498;2023-08-01T09:35:15;3.10;;;1.20;;
50631;SDS011;49583;45.590;-122.498;2023-08-01T09:37:29;2.80;;;1.00;;
50631;SDS011;49583;45.590;-122.498;2023-08-01T09:42:06;1.80;;;1.10;;
50631;SDS011;49583;45.590;-122.498;2023-08-01T09:44:19;2.10;;;1.20;;
50631;SDS011;49583;45.590;-122.498;2023-08-01T09:46:32;5.80;;;1.60;;
50631;SDS011;49583;45.590;-122.498;2023-08-01T09:48:46;1.80;;;1.30;;
50631;SDS011;49583;45.590;-122.498;2023-08-01T09:51:08;2.10;;;1.20;;
50631;SDS011;49583;45.590;-122.498;2023-08-01T09:53:22;1.60;;;1.20;;
50631;SDS011;49583;45.590;-122.498;2023-08-01T09:55:35;1.90;;;1.30;;
50631;SDS011;49583;45.590;-122.498;2023-08-01T09:57:50;5.70;;;1.50;;
50631;SDS011;49583;45.590;-122.498;2023-08-01T10:00:06;3.20;;;1.40;;
50631;SDS011;49583;45.590;-122.498;2023-08-01T10:02:20;3.50;;;1.40;;
50631;SDS011;49583;45.590;-122.498;2023-08-01T10:04:39;3.70;;;1.10;;
50631;SDS011;49583;45.590;-122.498;2023-08-01T10:06:53;3.80;;;1.40;;
50631;SDS011;49583;45.590;-122.498;2023-08-01T10:09:09;1.50;;;1.20;;
50631;SDS011;49583;45.590;-122.498;2023-08-01T10:11:23;2.70;;;1.60;;
50631;SDS011;49583;45.590;-122.498;2023-08-01T10:13:36;2.50;;;1.30;;
50631;SDS011;49583;45.590;-122.498;2023-08-01T10:15:51;2.50;;;1.50;;
50631;SDS011;49583;45.590;-122.498;2023-08-01T10:18:04;5.60;;;1.60;;
50631;SDS011;49583;45.590;-122.498;2023-08-01T10:20:18;3.90;;;1.50;;
50631;SDS011;49583;45.590;-122.498;2023-08-01T10:22:32;2.90;;;1.20;;
50631;SDS011;49583;45.590;-122.498;2023-08-01T10:24:46;5.00;;;1.30;;
50631;SDS011;49583;45.590;-122.498;2023-08-01T10:26:59;3.50;;;1.50;;
50631;SDS011;49583;45.590;-122.498;2023-08-01T10:29:23;4.30;;;1.30;;
50631;SDS011;49583;45.590;-122.498;2023-08-01T10:34:59;2.40;;;1.30;;
50631;SDS011;49583;45.590;-122.498;2023-08-01T10:37:12;2.10;;;1.40;;
50631;SDS011;49583;45.590;-122.498;2023-08-01T10:39:25;3.20;;;1.80;;
50631;SDS011;49583;45.590;-122.498;2023-08-01T10:41:38;1.80;;;1.20;;
50631;SDS011;49583;45.590;-122.498;2023-08-01T10:43:52;4.00;;;1.50;;
50631;SDS011;49583;45.590;-122.498;2023-08-01T10:46:13;4.60;;;1.90;;
50631;SDS011;49583;45.590;-122.498;2023-08-01T10:48:26;4.00;;;1.60;;
50631;SDS011;49583;45.590;-122.498;2023-08-01T10:50:41;3.10;;;1.60;;
50631;SDS011;49583;45.590;-122.498;2023-08-01T10:53:04;2.50;;;1.60;;
50631;SDS011;49583;45.590;-122.498;2023-08-01T10:55:19;2.80;;;1.50;;
50631;SDS011;49583;45.590;-122.498;2023-08-01T10:57:33;2.60;;;1.70;;
50631;SDS011;49583;45.590;-122.498;2023-08-01T10:59:50;1.90;;;1.20;;
50631;SDS011;49583;45.590;-122.498;2023-08-01T11:02:05;4.20;;;1.60;;
50631;SDS011;49583;45.590;-122.498;2023-08-01T11:04:19;4.20;;;1.60;;
50631;SDS011;49583;45.590;-122.498;2023-08-01T11:06:41;1.30;;;1.20;;
50631;SDS011;49583;45.590;-122.498;2023-08-01T11:08:55;2.90;;;1.30;;
50631;SDS011;49583;45.590;-122.498;2023-08-01T11:11:11;2.00;;;1.30;;
50631;SDS011;49583;45.590;-122.498;2023-08-01T11:13:24;3.10;;;1.70;;
50631;SDS011;49583;45.590;-122.498;2023-08-01T11:15:38;2.70;;;1.70;;
50631;SDS011;49583;45.590;-122.498;2023-08-01T11:17:51;2.40;;;1.50;;
50631;SDS011;49583;45.590;-122.498;2023-08-01T11:20:06;1.30;;;1.10;;
50631;SDS011;49583;45.590;-122.498;2023-08-01T11:22:20;2.30;;;1.70;;
50631;SDS011;49583;45.590;-122.498;2023-08-01T11:24:34;3.20;;;1.60;;
50631;SDS011;49583;45.590;-122.498;2023-08-01T11:26:48;11.20;;;1.70;;
50631;SDS011;49583;45.590;-122.498;2023-08-01T11:29:03;3.10;;;1.90;;
50631;SDS011;49583;45.590;-122.498;2023-08-01T11:31:15;2.20;;;1.40;;
50631;SDS011;49583;45.590;-122.498;2023-08-01T11:33:28;1.60;;;1.50;;
50631;SDS011;49583;45.590;-122.498;2023-08-01T11:35:41;3.50;;;1.60;;
50631;SDS011;49583;45.590;-122.498;2023-08-01T11:37:57;1.90;;;1.20;;
50631;SDS011;49583;45.590;-122.498;2023-08-01T11:40:11;2.60;;;1.50;;
50631;SDS011;49583;45.590;-122.498;2023-08-01T11:42:25;1.80;;;1.60;;
50631;SDS011;49583;45.590;-122.498;2023-08-01T11:44:42;3.40;;;1.70;;
50631;SDS011;49583;45.590;-122.498;2023-08-01T11:46:58;2.40;;;1.60;;
50631;SDS011;49583;45.590;-122.498;2023-08-01T11:49:13;2.40;;;1.60;;
50631;SDS011;49583;45.590;-122.498;2023-08-01T11:51:26;2.80;;;1.60;;
50631;SDS011;49583;45.590;-122.498;2023-08-01T11:53:39;1.90;;;1.60;;
50631;SDS011;49583;45.590;-122.498;2023-08-01T11:55:51;2.20;;;1.60;;
50631;SDS011;49583;45.590;-122.498;2023-08-01T11:58:05;2.60;;;1.60;;
50631;SDS011;49583;45.590;-122.498;2023-08-01T12:00:22;7.10;;;2.00;;
50631;SDS011;49583;45.590;-122.498;2023-08-01T12:02:36;3.80;;;2.00;;
50631;SDS011;49583;45.590;-122.498;2023-08-01T12:04:49;3.50;;;1.60;;
50631;SDS011;49583;45.590;-122.498;2023-08-01T12:07:02;2.00;;;1.60;;
50631;SDS011;49583;45.590;-122.498;2023-08-01T12:09:24;4.10;;;2.60;;
50631;SDS011;49583;45.590;-122.498;2023-08-01T12:11:41;2.70;;;1.50;;
50631;SDS011;49583;45.590;-122.498;2023-08-01T12:14:04;2.70;;;2.00;;
50631;SDS011;49583;45.590;-122.498;2023-08-01T12:16:17;1.90;;;1.60;;
50631;SDS011;49583;45.590;-122.498;2023-08-01T12:18:30;1.60;;;1.30;;
50631;SDS011;49583;45.590;-122.498;2023-08-01T12:21:04;2.90;;;1.70;;
50631;SDS011;49583;45.590;-122.498;2023-08-01T12:23:17;4.70;;;1.70;;
50631;SDS011;49583;45.590;-122.498;2023-08-01T12:25:30;4.10;;;1.50;;
50631;SDS011;49583;45.590;-122.498;2023-08-01T12:27:45;3.80;;;1.40;;
50631;SDS011;49583;45.590;-122.498;2023-08-01T12:29:58;6.00;;;2.00;;
50631;SDS011;49583;45.590;-122.498;2023-08-01T12:32:11;3.00;;;1.80;;
50631;SDS011;49583;45.590;-122.498;2023-08-01T12:34:23;3.70;;;1.90;;
50631;SDS011;49583;45.590;-122.498;2023-08-01T12:36:36;2.40;;;1.70;;
50631;SDS011;49583;45.590;-122.498;2023-08-01T12:38:49;3.50;;;1.70;;
50631;SDS011;49583;45.590;-122.498;2023-08-01T12:41:02;3.70;;;1.80;;
50631;SDS011;49583;45.590;-122.498;2023-08-01T12:43:15;2.90;;;2.10;;
50631;SDS011;49583;45.590;-122.498;2023-08-01T12:45:27;6.30;;;2.50;;
50631;SDS011;49583;45.590;-122.498;2023-08-01T12:47:40;7.40;;;2.30;;
50631;SDS011;49583;45.590;-122.498;2023-08-01T12:49:52;3.90;;;1.60;;
50631;SDS011;49583;45.590;-122.498;2023-08-01T12:52:06;3.90;;;1.80;;
50631;SDS011;49583;45.590;-122.498;2023-08-01T12:54:18;7.80;;;1.80;;
50631;SDS011;49583;45.590;-122.498;2023-08-01T12:56:32;3.50;;;1.80;;